createdAt,value
2019-05-03T00:01:02.452Z,99608.36
2019-05-03T00:03:32.628Z,99613.69
2019-05-03T00:06:05.891Z,99609.88
2019-05-03T00:08:36.069Z,99607.90
2019-05-03T00:11:06.268Z,99606.98
2019-05-03T00:13:36.560Z,99605.72
2019-05-03T00:16:14.249Z,99610.25
2019-05-03T00:18:44.319Z,99617.58
2019-05-03T00:21:14.429Z,99614.09
2019-05-03T00:23:44.503Z,99617.52
2019-05-03T00:26:14.614Z,99626.34
2019-05-03T00:28:44.681Z,99660.73
2019-05-03T00:31:14.788Z,99674.09
2019-05-03T00:33:46.412Z,99675.14
2019-05-03T00:36:18.091Z,99680.94
2019-05-03T00:38:48.553Z,99687.03
2019-05-03T00:41:18.647Z,99690.06
2019-05-03T00:43:48.701Z,99703.73
2019-05-03T00:46:18.804Z,99685.48
2019-05-03T00:48:48.856Z,99693.48
2019-05-03T00:51:18.943Z,99689.95
2019-05-03T00:53:48.898Z,99691.05
2019-05-03T00:56:18.892Z,99689.55
2019-05-03T00:58:53.522Z,99690.58
2019-05-03T01:01:23.611Z,99692.00
2019-05-03T01:03:53.659Z,99703.80
2019-05-03T01:06:23.751Z,99696.95
2019-05-03T01:08:53.695Z,99702.61
2019-05-03T01:11:24.082Z,99701.71
2019-05-03T01:13:54.089Z,99706.22
2019-05-03T01:16:25.583Z,99706.26
2019-05-03T01:18:55.598Z,99711.39
2019-05-03T01:21:25.698Z,99719.52
2019-05-03T01:23:55.715Z,99720.34
2019-05-03T01:26:25.799Z,99716.40
2019-05-03T01:28:55.829Z,99712.66
2019-05-03T01:31:25.906Z,99713.61
2019-05-03T01:33:55.931Z,99707.57
2019-05-03T01:36:26.010Z,99700.25
2019-05-03T01:38:56.034Z,99697.91
2019-05-03T01:41:26.108Z,99695.47
2019-05-03T01:43:56.126Z,99690.17
2019-05-03T01:46:26.496Z,99696.66
2019-05-03T01:49:13.211Z,99699.19
2019-05-03T01:52:02.100Z,99699.59
2019-05-03T01:54:32.203Z,99705.81
2019-05-03T01:57:02.615Z,99715.58
2019-05-03T01:59:32.701Z,99711.19
2019-05-03T02:02:07.088Z,99716.32
2019-05-03T02:04:37.651Z,99718.99
2019-05-03T02:07:07.735Z,99727.00
2019-05-03T02:09:37.762Z,99730.94
2019-05-03T02:12:07.935Z,99732.26
2019-05-03T02:14:37.954Z,99729.22
2019-05-03T02:17:08.062Z,99730.30
2019-05-03T02:19:38.295Z,99732.19
2019-05-03T02:22:08.386Z,99731.38
2019-05-03T02:24:38.413Z,99730.30
2019-05-03T02:27:08.490Z,99726.31
2019-05-03T02:29:38.527Z,99717.66
2019-05-03T02:32:08.604Z,99728.48
2019-05-03T02:34:38.623Z,99723.85
2019-05-03T02:37:08.713Z,99725.95
2019-05-03T02:39:38.738Z,99728.09
2019-05-03T02:42:11.729Z,99727.11
2019-05-03T02:44:41.344Z,99721.90
2019-05-03T02:47:19.081Z,99723.98
2019-05-03T02:49:50.678Z,99729.33
2019-05-03T02:52:37.178Z,99728.17
2019-05-03T02:55:09.655Z,99733.52
2019-05-03T02:57:39.832Z,99728.58
2019-05-03T03:00:12.158Z,99729.84
2019-05-03T03:02:42.464Z,99729.64
2019-05-03T03:05:12.573Z,99728.70
2019-05-03T03:07:45.959Z,99728.33
2019-05-03T03:10:17.477Z,99738.96
2019-05-03T03:12:50.661Z,99731.45
2019-05-03T03:15:20.691Z,99736.13
2019-05-03T03:17:56.020Z,99745.65
2019-05-03T03:20:26.966Z,99738.02
2019-05-03T03:22:59.259Z,99745.33
2019-05-03T03:25:36.193Z,99750.20
2019-05-03T03:28:08.206Z,99746.34
2019-05-03T03:30:57.147Z,99748.48
2019-05-03T03:33:28.043Z,99743.38
2019-05-03T03:36:01.139Z,99757.75
2019-05-03T03:38:27.893Z,99752.70
2019-05-03T03:40:59.118Z,99761.69
2019-05-03T03:43:30.951Z,99763.52
2019-05-03T03:46:02.183Z,99771.97
2019-05-03T03:48:35.465Z,99772.34
2019-05-03T03:51:07.099Z,99782.69
2019-05-03T03:53:39.623Z,99796.23
2019-05-03T03:56:12.353Z,99796.09
2019-05-03T03:58:46.403Z,99800.22
2019-05-03T04:01:16.309Z,99802.84
2019-05-03T04:03:46.399Z,99801.86
2019-05-03T04:06:17.348Z,99806.22
2019-05-03T04:08:47.427Z,99802.95
2019-05-03T04:11:18.092Z,99804.79
2019-05-03T04:13:48.380Z,99816.19
2019-05-03T04:16:25.816Z,99817.38
2019-05-03T04:18:59.348Z,99822.92
2019-05-03T04:21:29.476Z,99826.28
2019-05-03T04:23:59.550Z,99831.27
2019-05-03T04:26:30.295Z,99837.64
2019-05-03T04:29:00.638Z,99832.25
2019-05-03T04:31:30.649Z,99836.30
2019-05-03T04:34:00.744Z,99842.03
2019-05-03T04:36:30.783Z,99841.54
2019-05-03T04:39:00.861Z,99849.03
2019-05-03T04:41:30.886Z,99855.34
2019-05-03T04:44:00.977Z,99859.03
2019-05-03T04:46:30.999Z,99863.04
2019-05-03T04:49:01.343Z,99857.97
2019-05-03T04:51:31.366Z,99866.23
2019-05-03T04:54:16.452Z,99866.40
2019-05-03T04:56:46.688Z,99872.16
2019-05-03T04:59:16.788Z,99872.75
2019-05-03T05:01:46.820Z,99879.69
2019-05-03T05:04:16.921Z,99883.17
2019-05-03T05:06:46.941Z,99881.58
2019-05-03T05:09:17.031Z,99878.13
2019-05-03T05:11:47.051Z,99885.90
2019-05-03T05:14:17.152Z,99885.52
2019-05-03T05:16:47.172Z,99892.66
2019-05-03T05:19:25.431Z,99895.59
2019-05-03T05:21:57.121Z,99893.66
2019-05-03T05:24:27.199Z,99905.20
2019-05-03T05:27:01.525Z,99909.34
2019-05-03T05:29:34.633Z,99913.76
2019-05-03T05:32:05.292Z,99912.55
2019-05-03T05:34:35.448Z,99924.08
2019-05-03T05:37:05.525Z,99928.19
2019-05-03T05:39:35.744Z,99928.91
2019-05-03T05:42:05.718Z,99936.62
2019-05-03T05:44:35.794Z,99940.48
2019-05-03T05:47:10.807Z,99936.03
2019-05-03T05:49:45.459Z,99943.10
2019-05-03T05:52:15.633Z,99937.84
2019-05-03T05:54:47.372Z,99945.59
2019-05-03T05:57:25.646Z,99941.05
2019-05-03T06:00:09.439Z,99948.24
2019-05-03T06:02:39.473Z,99953.05
2019-05-03T06:05:09.636Z,99968.32
2019-05-03T06:07:50.008Z,99956.82
2019-05-03T06:10:21.653Z,99964.84
2019-05-03T06:12:54.518Z,99968.94
2019-05-03T06:15:38.443Z,99975.41
2019-05-03T06:18:14.649Z,99972.26
2019-05-03T06:21:01.498Z,99978.63
2019-05-03T06:23:45.357Z,99980.32
2019-05-03T06:26:34.669Z,99973.53
2019-05-03T06:29:06.444Z,99974.35
2019-05-03T06:31:55.083Z,99979.38
2019-05-03T06:34:26.391Z,99978.41
2019-05-03T06:36:58.043Z,99980.84
2019-05-03T06:39:28.072Z,99990.45
2019-05-03T06:41:58.163Z,99987.20
2019-05-03T06:44:28.717Z,99986.34
2019-05-03T06:47:01.103Z,100002.02
2019-05-03T06:49:30.625Z,99999.04
2019-05-03T06:52:00.713Z,99995.00
2019-05-03T06:54:30.763Z,99995.48
2019-05-03T06:57:05.739Z,99998.60
2019-05-03T06:59:37.190Z,100000.67
2019-05-03T07:02:08.878Z,100001.25
2019-05-03T07:04:40.574Z,100008.20
2019-05-03T07:07:28.903Z,100011.91
2019-05-03T07:10:05.042Z,100011.55
2019-05-03T07:12:54.676Z,100014.42
2019-05-03T07:15:25.322Z,100019.17
2019-05-03T07:17:55.806Z,100019.83
2019-05-03T07:20:25.994Z,100025.09
2019-05-03T07:22:56.696Z,100029.70
2019-05-03T07:25:26.755Z,100021.72
2019-05-03T07:27:56.845Z,100027.80
2019-05-03T07:30:26.884Z,100024.72
2019-05-03T07:32:58.548Z,100018.80
2019-05-03T07:35:28.597Z,100029.94
2019-05-03T07:37:59.338Z,100025.12
2019-05-03T07:40:29.500Z,100025.49
2019-05-03T07:42:59.832Z,100031.80
2019-05-03T07:45:35.479Z,100040.00
2019-05-03T07:48:06.666Z,100038.34
2019-05-03T07:50:37.848Z,100038.23
2019-05-03T07:53:11.053Z,100034.47
2019-05-03T07:55:56.177Z,100039.80
2019-05-03T07:58:35.121Z,100034.63
2019-05-03T08:01:25.117Z,100033.25
2019-05-03T08:03:58.352Z,100041.86
2019-05-03T08:06:29.663Z,100032.88
2019-05-03T08:09:04.864Z,100035.40
2019-05-03T08:11:36.762Z,100045.97
2019-05-03T08:14:09.952Z,100051.78
2019-05-03T08:16:40.498Z,100044.97
2019-05-03T08:19:11.831Z,100045.34
2019-05-03T08:21:45.166Z,100043.56
2019-05-03T08:24:16.168Z,100039.48
2019-05-03T08:26:55.773Z,100042.55
2019-05-03T08:29:35.002Z,100047.34
2019-05-03T08:32:19.505Z,100053.13
2019-05-03T08:35:10.556Z,100053.11
2019-05-03T08:37:46.968Z,100057.75
2019-05-03T08:40:20.241Z,100059.49
2019-05-03T08:42:52.311Z,100061.17
2019-05-03T08:45:23.133Z,100058.22
2019-05-03T08:48:12.027Z,100074.87
2019-05-03T08:50:44.951Z,100061.23
2019-05-03T08:53:15.711Z,100056.61
2019-05-03T08:55:46.813Z,100043.95
2019-05-03T08:58:20.412Z,100062.74
2019-05-03T09:00:52.064Z,100058.44
2019-05-03T09:03:38.455Z,100062.88
2019-05-03T09:06:11.478Z,100058.41
2019-05-03T09:08:42.488Z,100057.85
2019-05-03T09:11:16.476Z,100058.84
2019-05-03T09:13:52.928Z,100065.74
2019-05-03T09:16:25.948Z,100063.34
2019-05-03T09:18:56.430Z,100063.38
2019-05-03T09:21:28.425Z,100060.47
2019-05-03T09:24:04.689Z,100061.47
2019-05-03T09:26:36.427Z,100081.15
2019-05-03T09:29:07.338Z,100083.32
2019-05-03T09:31:38.214Z,100072.20
2019-05-03T09:34:14.749Z,100074.16
2019-05-03T09:36:52.887Z,100082.30
2019-05-03T09:39:25.123Z,100074.05
2019-05-03T09:41:56.374Z,100070.84
2019-05-03T09:44:26.919Z,100069.02
2019-05-03T09:46:57.683Z,100075.69
2019-05-03T09:49:28.902Z,100077.98
2019-05-03T09:52:00.697Z,100077.36
2019-05-03T09:54:36.340Z,100061.32
2019-05-03T09:57:06.884Z,100062.84
2019-05-03T09:59:37.949Z,100070.45
2019-05-03T10:02:12.570Z,100062.39
2019-05-03T10:04:49.719Z,100062.28
2019-05-03T10:07:25.768Z,100068.94
2019-05-03T10:09:56.348Z,100071.66
2019-05-03T10:12:27.018Z,100074.20
2019-05-03T10:14:57.295Z,100071.77
2019-05-03T10:17:36.057Z,100057.61
2019-05-03T10:20:18.241Z,100067.28
2019-05-03T10:22:52.238Z,100067.04
2019-05-03T10:25:40.207Z,100068.41
2019-05-03T10:28:10.761Z,100058.56
2019-05-03T10:30:45.058Z,100057.55
2019-05-03T10:33:20.582Z,100057.08
2019-05-03T10:35:54.434Z,100062.20
2019-05-03T10:38:28.281Z,100062.89
2019-05-03T10:41:00.221Z,100061.33
2019-05-03T10:43:31.708Z,100056.70
2019-05-03T10:46:05.977Z,100057.64
2019-05-03T10:48:36.157Z,100064.42
2019-05-03T10:51:06.459Z,100055.20
2019-05-03T10:53:38.176Z,100048.66
2019-05-03T10:56:22.889Z,100047.67
2019-05-03T10:59:03.424Z,100049.31
2019-05-03T11:01:51.417Z,100051.67
2019-05-03T11:04:21.511Z,100047.54
2019-05-03T11:06:51.607Z,100055.53
2019-05-03T11:09:21.800Z,100054.66
2019-05-03T11:11:51.932Z,100052.84
2019-05-03T11:14:22.149Z,100052.62
2019-05-03T11:16:52.185Z,100054.98
2019-05-03T11:19:22.295Z,100045.83
2019-05-03T11:21:52.364Z,100045.91
2019-05-03T11:24:25.065Z,100050.91
2019-05-03T11:26:56.056Z,100040.22
2019-05-03T11:29:26.243Z,100035.22
2019-05-03T11:32:00.897Z,100041.98
2019-05-03T11:34:44.990Z,100037.84
2019-05-03T11:37:34.616Z,100044.78
2019-05-03T11:40:06.827Z,100063.42
2019-05-03T11:42:36.998Z,100054.39
2019-05-03T11:45:07.861Z,100056.95
2019-05-03T11:47:37.906Z,100057.01
2019-05-03T11:50:08.410Z,100064.42
2019-05-03T11:53:05.131Z,100051.68
2019-05-03T11:55:36.764Z,100055.09
2019-05-03T11:58:20.856Z,100046.22
2019-05-03T12:01:11.220Z,100054.64
2019-05-03T12:03:31.794Z,100054.78
2019-05-03T12:06:01.909Z,100052.44
2019-05-03T12:08:31.957Z,100050.10
2019-05-03T12:11:02.059Z,100049.95
2019-05-03T12:13:32.103Z,100051.82
2019-05-03T12:16:05.461Z,100052.75
2019-05-03T12:18:47.874Z,100055.80
2019-05-03T12:21:08.309Z,100062.00
2019-05-03T12:23:38.509Z,100045.74
2019-05-03T12:26:13.136Z,100048.62
2019-05-03T12:28:40.856Z,100044.14
2019-05-03T12:31:25.768Z,100042.00
2019-05-03T12:33:42.726Z,100041.05
2019-05-03T12:36:12.831Z,100047.17
2019-05-03T12:38:44.578Z,100045.45
2019-05-03T12:41:15.070Z,100052.66
2019-05-03T12:43:45.203Z,100037.58
2019-05-03T12:46:16.876Z,100046.55
2019-05-03T12:48:47.127Z,100042.27
2019-05-03T12:51:17.233Z,100046.07
2019-05-03T12:53:47.278Z,100046.84
2019-05-03T12:56:23.727Z,100039.83
2019-05-03T12:58:50.684Z,100042.98
2019-05-03T13:01:41.683Z,100040.05
2019-05-03T13:04:26.094Z,100045.52
2019-05-03T13:07:05.345Z,100037.97
2019-05-03T13:09:35.750Z,100037.42
2019-05-03T13:12:07.051Z,100029.03
2019-05-03T13:14:37.207Z,100036.45
2019-05-03T13:17:07.413Z,100036.34
2019-05-03T13:19:37.564Z,100036.58
2019-05-03T13:22:07.966Z,100032.61
2019-05-03T13:24:42.288Z,100037.53
2019-05-03T13:27:15.689Z,100031.52
2019-05-03T13:29:47.589Z,100029.69
2019-05-03T13:32:20.324Z,100032.23
2019-05-03T13:34:55.333Z,100029.36
2019-05-03T13:37:25.958Z,100020.77
2019-05-03T13:39:56.097Z,100019.87
2019-05-03T13:42:26.728Z,100026.78
2019-05-03T13:44:58.525Z,100019.91
2019-05-03T13:47:29.166Z,100025.92
2019-05-03T13:50:02.552Z,100015.77
2019-05-03T13:52:34.671Z,100019.30
2019-05-03T13:55:08.825Z,100017.63
2019-05-03T13:57:39.216Z,100010.08
2019-05-03T14:00:11.325Z,100012.99
2019-05-03T14:02:41.789Z,100012.30
2019-05-03T14:05:12.551Z,100006.63
2019-05-03T14:07:44.662Z,100004.84
2019-05-03T14:10:15.642Z,99996.02
2019-05-03T14:12:46.044Z,100010.81
2019-05-03T14:15:20.070Z,100013.14
2019-05-03T14:17:55.074Z,100007.91
2019-05-03T14:20:42.931Z,100011.41
2019-05-03T14:23:17.402Z,99999.89
2019-05-03T14:25:51.718Z,100009.30
2019-05-03T14:28:22.467Z,100007.89
2019-05-03T14:30:54.601Z,100014.51
2019-05-03T14:33:28.352Z,100016.87
2019-05-03T14:35:57.902Z,100010.48
2019-05-03T14:38:30.490Z,100014.17
2019-05-03T14:41:00.396Z,100011.13
2019-05-03T14:43:30.851Z,100008.94
2019-05-03T14:46:05.446Z,100009.27
2019-05-03T14:48:36.776Z,100002.45
2019-05-03T14:51:08.340Z,100003.08
2019-05-03T14:53:39.993Z,100009.15
2019-05-03T14:56:28.821Z,100002.17
2019-05-03T14:59:19.479Z,100004.13
2019-05-03T15:01:55.230Z,99998.69
2019-05-03T15:04:29.009Z,100005.21
2019-05-03T15:07:00.257Z,100001.84
2019-05-03T15:09:31.246Z,100006.98
2019-05-03T15:12:05.552Z,100013.64
2019-05-03T15:14:38.614Z,100014.92
2019-05-03T15:17:09.465Z,100008.17
2019-05-03T15:19:40.460Z,100009.23
2019-05-03T15:22:10.722Z,100004.05
2019-05-03T15:24:41.766Z,100005.61
2019-05-03T15:27:15.973Z,100002.09
2019-05-03T15:29:48.215Z,100016.55
2019-05-03T15:32:25.760Z,100017.16
2019-05-03T15:34:58.211Z,100025.88
2019-05-03T15:37:28.853Z,100017.78
2019-05-03T15:40:01.060Z,100020.83
2019-05-03T15:42:31.813Z,100020.49
2019-05-03T15:45:10.302Z,100019.73
2019-05-03T15:47:45.015Z,100021.58
2019-05-03T15:50:16.561Z,100023.02
2019-05-03T15:52:51.355Z,100023.78
2019-05-03T15:55:24.548Z,100029.97
2019-05-03T15:58:18.351Z,100033.35
2019-05-03T16:00:35.587Z,100030.31
2019-05-03T16:03:11.272Z,100035.62
2019-05-03T16:05:44.724Z,100033.39
2019-05-03T16:08:16.005Z,100016.25
2019-05-03T16:10:48.730Z,100031.96
2019-05-03T16:13:25.504Z,100041.57
2019-05-03T16:16:04.360Z,100040.45
2019-05-03T16:18:35.370Z,100036.16
2019-05-03T16:21:06.526Z,100036.84
2019-05-03T16:23:38.055Z,100030.75
2019-05-03T16:26:09.880Z,100034.17
2019-05-03T16:28:59.734Z,100040.77
2019-05-03T16:31:42.182Z,100029.09
2019-05-03T16:34:12.685Z,100030.70
2019-05-03T16:36:45.530Z,100038.33
2019-05-03T16:39:17.762Z,100037.50
2019-05-03T16:41:50.740Z,100044.77
2019-05-03T16:44:21.507Z,100034.52
2019-05-03T16:46:52.136Z,100045.34
2019-05-03T16:49:27.291Z,100046.20
2019-05-03T16:52:49.374Z,100043.00
2019-05-03T16:54:36.050Z,100039.19
2019-05-03T16:57:09.743Z,100040.51
2019-05-03T17:01:20.254Z,100043.55
2019-05-03T17:02:17.350Z,100045.44
2019-05-03T17:04:57.677Z,100048.62
2019-05-03T17:07:46.936Z,100044.06
2019-05-03T17:10:22.215Z,100051.16
2019-05-03T17:13:00.932Z,100054.81
2019-05-03T17:15:31.419Z,100053.13
2019-05-03T17:18:06.421Z,100052.56
2019-05-03T17:20:51.768Z,100056.47
2019-05-03T17:23:19.721Z,100054.45
2019-05-03T17:25:57.487Z,100054.60
2019-05-03T17:28:30.953Z,100054.23
2019-05-03T17:31:04.749Z,100051.30
2019-05-03T17:33:36.207Z,100058.75
2019-05-03T17:36:06.300Z,100060.55
2019-05-03T17:38:38.028Z,100059.12
2019-05-03T17:41:11.352Z,100059.12
2019-05-03T17:43:55.265Z,100062.95
2019-05-03T17:46:31.211Z,100058.97
2019-05-03T17:49:02.706Z,100062.42
2019-05-03T17:51:45.466Z,100063.86
2019-05-03T17:54:16.953Z,100062.12
2019-05-03T17:56:55.176Z,100059.95
2019-05-03T17:59:34.933Z,100064.11
2019-05-03T18:02:22.525Z,100064.11
2019-05-03T18:05:10.636Z,100071.42
2019-05-03T18:07:45.336Z,100066.98
2019-05-03T18:10:15.908Z,100072.25
2019-05-03T18:12:45.962Z,100072.43
2019-05-03T18:15:16.085Z,100074.34
2019-05-03T18:17:46.107Z,100079.25
2019-05-03T18:20:16.255Z,100080.75
2019-05-03T18:22:46.312Z,100082.92
2019-05-03T18:25:16.450Z,100083.96
2019-05-03T18:27:46.501Z,100079.82
2019-05-03T18:30:17.086Z,100082.14
2019-05-03T18:32:47.227Z,100078.13
2019-05-03T18:35:17.338Z,100083.52
2019-05-03T18:37:51.213Z,100083.20
2019-05-03T18:40:21.824Z,100085.27
2019-05-03T18:42:55.175Z,100082.27
2019-05-03T18:45:31.091Z,100095.03
2019-05-03T18:48:01.978Z,100090.95
2019-05-03T18:50:36.735Z,100098.16
2019-05-03T18:59:49.748Z,100103.67
2019-05-03T19:02:21.653Z,100110.66
2019-05-03T19:05:00.544Z,100109.70
2019-05-03T19:07:35.960Z,100105.47
2019-05-03T19:10:12.282Z,100106.66
2019-05-03T19:12:49.129Z,100103.62
2019-05-03T19:15:29.951Z,100103.41
2019-05-03T19:18:09.456Z,100112.95
2019-05-03T19:20:40.154Z,100110.92
2019-05-03T19:23:12.220Z,100102.92
2019-05-03T19:25:49.032Z,100110.97
2019-05-03T19:28:16.677Z,100110.59
2019-05-03T19:30:47.484Z,100110.45
2019-05-03T19:33:17.560Z,100103.76
2019-05-03T19:35:47.716Z,100107.66
2019-05-03T19:38:17.915Z,100108.12
2019-05-03T19:41:03.836Z,100104.54
2019-05-03T19:43:27.130Z,100110.75
2019-05-03T19:49:06.941Z,100092.29
2019-05-03T19:51:37.272Z,100101.84
2019-05-03T19:57:12.634Z,100098.25
2019-05-03T19:59:44.569Z,100097.47
2019-05-03T20:02:16.472Z,100097.24
2019-05-03T20:05:07.290Z,100097.91
2019-05-03T20:07:42.040Z,100090.43
2019-05-03T20:10:18.174Z,100102.72
2019-05-03T20:12:53.520Z,100102.41
2019-05-03T20:15:29.484Z,100100.63
2019-05-03T20:18:04.783Z,100099.86
2019-05-03T20:20:36.455Z,100107.34
2019-05-03T20:29:29.510Z,100107.82
2019-05-03T20:32:00.328Z,100095.63
2019-05-03T20:34:31.981Z,100097.90
2019-05-03T20:37:02.881Z,100094.72
2019-05-03T20:39:46.590Z,100092.27
2019-05-03T20:42:39.884Z,100092.88
2019-05-03T20:45:14.615Z,100090.02
2019-05-03T20:47:59.169Z,100092.20
2019-05-03T20:50:30.941Z,100086.64
2019-05-03T20:53:01.915Z,100091.05
2019-05-03T20:55:40.617Z,100087.92
2019-05-03T20:58:11.470Z,100092.98
2019-05-03T21:00:41.882Z,100088.80
2019-05-03T21:03:11.989Z,100089.61
2019-05-03T21:05:42.029Z,100087.50
2019-05-03T21:08:12.126Z,100092.30
2019-05-03T21:10:42.188Z,100091.94
2019-05-03T21:13:12.292Z,100090.12
2019-05-03T21:15:49.927Z,100091.41
2019-05-03T21:18:27.582Z,100089.25
2019-05-03T21:20:59.190Z,100084.58
2019-05-03T21:23:30.877Z,100083.27
2019-05-03T21:26:12.064Z,100087.23
2019-05-03T21:28:34.820Z,100083.48
2019-05-03T21:31:05.653Z,100086.61
2019-05-03T21:33:35.963Z,100084.37
2019-05-03T21:36:06.000Z,100090.94
2019-05-03T21:38:36.093Z,100084.17
2019-05-03T21:41:06.229Z,100082.83
2019-05-03T21:43:36.315Z,100080.66
2019-05-03T21:46:16.973Z,100082.09
2019-05-03T21:48:48.631Z,100080.33
2019-05-03T21:51:18.771Z,100089.17
2019-05-03T21:53:48.864Z,100087.36
2019-05-03T21:56:18.905Z,100089.34
2019-05-03T21:58:48.996Z,100080.31
2019-05-03T22:01:19.036Z,100079.73
2019-05-03T22:03:49.146Z,100080.94
2019-05-03T22:06:19.229Z,100084.39
2019-05-03T22:08:49.327Z,100085.18
2019-05-03T22:11:19.403Z,100080.30
2019-05-03T22:13:51.081Z,100088.11
2019-05-03T22:16:24.539Z,100095.97
2019-05-03T22:18:54.716Z,100090.47
2019-05-03T22:21:29.098Z,100091.81
2019-05-03T22:24:06.981Z,100078.95
2019-05-03T22:26:54.731Z,100086.27
2019-05-03T22:29:25.461Z,100090.87
2019-05-03T22:31:55.860Z,100085.09
2019-05-03T22:34:26.034Z,100087.52
2019-05-03T22:36:56.091Z,100088.41
2019-05-03T22:39:26.194Z,100085.79
2019-05-03T22:41:56.494Z,100084.48
2019-05-03T22:44:26.588Z,100084.48
2019-05-03T22:46:56.633Z,100084.39
2019-05-03T22:49:26.736Z,100085.59
2019-05-03T22:51:56.776Z,100079.42
2019-05-03T22:54:26.867Z,100070.36
2019-05-03T22:56:56.909Z,100072.98
2019-05-03T22:59:27.008Z,100070.86
2019-05-03T23:01:57.072Z,100064.25
2019-05-03T23:04:27.147Z,100063.09
2019-05-03T23:06:57.421Z,100056.86
2019-05-03T23:09:28.557Z,100052.03
2019-05-03T23:11:58.710Z,100049.41
2019-05-03T23:14:28.740Z,100052.88
2019-05-03T23:16:58.820Z,100050.75
2019-05-03T23:19:28.955Z,100051.00
2019-05-03T23:22:09.665Z,100040.12
2019-05-03T23:24:39.697Z,100045.22
2019-05-03T23:27:09.788Z,100044.86
2019-05-03T23:29:39.816Z,100042.71
2019-05-03T23:32:09.903Z,100044.91
2019-05-03T23:34:39.948Z,100042.89
2019-05-03T23:37:10.046Z,100050.81
2019-05-03T23:39:40.111Z,100050.52
2019-05-03T23:42:10.204Z,100051.88
2019-05-03T23:44:40.274Z,100047.62
2019-05-03T23:47:14.962Z,100045.56
2019-05-03T23:49:45.037Z,100045.50
2019-05-03T23:52:26.238Z,100044.39
2019-05-03T23:55:01.405Z,100039.36
2019-05-03T23:57:31.479Z,100035.91
